sensor_id;sensor_type;location;lat;lon;timestamp;temperature;humidity
23715;DHT22;12036;50.858;4.472;2023-03-21T00:00:17;11.00;99.90
23715;DHT22;12036;50.858;4.472;2023-03-21T00:02:43;11.00;99.90
23715;DHT22;12036;50.858;4.472;2023-03-21T00:05:09;11.00;99.90
23715;DHT22;12036;50.858;4.472;2023-03-21T00:07:35;11.00;99.90
23715;DHT22;12036;50.858;4.472;2023-03-21T00:10:00;11.00;99.90
23715;DHT22;12036;50.858;4.472;2023-03-21T00:12:26;11.00;99.90
23715;DHT22;12036;50.858;4.472;2023-03-21T00:14:51;11.00;99.90
23715;DHT22;12036;50.858;4.472;2023-03-21T00:17:18;11.00;99.90
23715;DHT22;12036;50.858;4.472;2023-03-21T00:19:46;10.90;99.90
23715;DHT22;12036;50.858;4.472;2023-03-21T00:22:13;10.90;99.90
23715;DHT22;12036;50.858;4.472;2023-03-21T00:24:39;10.90;99.90
23715;DHT22;12036;50.858;4.472;2023-03-21T00:27:05;10.90;99.90
23715;DHT22;12036;50.858;4.472;2023-03-21T00:29:31;10.90;99.90
23715;DHT22;12036;50.858;4.472;2023-03-21T00:31:57;10.90;99.90
23715;DHT22;12036;50.858;4.472;2023-03-21T00:34:23;10.90;99.90
23715;DHT22;12036;50.858;4.472;2023-03-21T00:36:49;10.90;99.90
23715;DHT22;12036;50.858;4.472;2023-03-21T00:39:15;10.80;99.90
23715;DHT22;12036;50.858;4.472;2023-03-21T00:41:40;10.80;99.90
23715;DHT22;12036;50.858;4.472;2023-03-21T00:44:06;10.80;99.90
23715;DHT22;12036;50.858;4.472;2023-03-21T00:46:32;10.80;99.90
23715;DHT22;12036;50.858;4.472;2023-03-21T00:49:00;10.80;99.90
23715;DHT22;12036;50.858;4.472;2023-03-21T00:51:25;10.80;99.90
23715;DHT22;12036;50.858;4.472;2023-03-21T00:53:56;10.80;99.90
23715;DHT22;12036;50.858;4.472;2023-03-21T00:56:22;10.80;99.90
23715;DHT22;12036;50.858;4.472;2023-03-21T00:58:47;10.80;99.90
23715;DHT22;12036;50.858;4.472;2023-03-21T01:01:13;10.80;99.90
23715;DHT22;12036;50.858;4.472;2023-03-21T01:03:39;10.90;99.90
23715;DHT22;12036;50.858;4.472;2023-03-21T01:06:12;10.80;99.90
23715;DHT22;12036;50.858;4.472;2023-03-21T01:08:40;10.80;99.90
23715;DHT22;12036;50.858;4.472;2023-03-21T01:11:12;10.80;99.90
23715;DHT22;12036;50.858;4.472;2023-03-21T01:13:38;10.90;99.90
23715;DHT22;12036;50.858;4.472;2023-03-21T01:16:06;10.90;99.90
23715;DHT22;12036;50.858;4.472;2023-03-21T01:18:33;10.90;99.90
23715;DHT22;12036;50.858;4.472;2023-03-21T01:21:00;10.80;99.90
23715;DHT22;12036;50.858;4.472;2023-03-21T01:23:27;10.80;99.90
23715;DHT22;12036;50.858;4.472;2023-03-21T01:25:54;10.90;99.90
23715;DHT22;12036;50.858;4.472;2023-03-21T01:28:21;10.90;99.90
23715;DHT22;12036;50.858;4.472;2023-03-21T01:30:51;10.90;99.90
23715;DHT22;12036;50.858;4.472;2023-03-21T01:33:18;10.80;99.90
23715;DHT22;12036;50.858;4.472;2023-03-21T01:35:44;10.90;99.90
23715;DHT22;12036;50.858;4.472;2023-03-21T01:38:11;10.90;99.90
23715;DHT22;12036;50.858;4.472;2023-03-21T01:40:38;10.90;99.90
23715;DHT22;12036;50.858;4.472;2023-03-21T01:43:25;10.90;99.90
23715;DHT22;12036;50.858;4.472;2023-03-21T01:48:36;11.00;99.90
23715;DHT22;12036;50.858;4.472;2023-03-21T01:51:04;10.90;99.90
23715;DHT22;12036;50.858;4.472;2023-03-21T01:53:32;11.00;99.90
23715;DHT22;12036;50.858;4.472;2023-03-21T01:56:28;11.00;99.90
23715;DHT22;12036;50.858;4.472;2023-03-21T01:59:04;11.00;99.90
23715;DHT22;12036;50.858;4.472;2023-03-21T02:01:32;11.00;99.90
23715;DHT22;12036;50.858;4.472;2023-03-21T02:04:00;11.00;99.90
23715;DHT22;12036;50.858;4.472;2023-03-21T02:06:29;11.00;99.90
23715;DHT22;12036;50.858;4.472;2023-03-21T02:09:01;11.10;99.90
23715;DHT22;12036;50.858;4.472;2023-03-21T02:11:29;11.20;99.90
23715;DHT22;12036;50.858;4.472;2023-03-21T02:13:57;11.20;99.90
23715;DHT22;12036;50.858;4.472;2023-03-21T02:17:00;11.20;99.90
23715;DHT22;12036;50.858;4.472;2023-03-21T02:36:24;11.10;99.90
23715;DHT22;12036;50.858;4.472;2023-03-21T02:41:40;11.20;99.90
23715;DHT22;12036;50.858;4.472;2023-03-21T02:44:20;11.20;99.90
23715;DHT22;12036;50.858;4.472;2023-03-21T02:47:01;11.20;99.90
23715;DHT22;12036;50.858;4.472;2023-03-21T02:49:36;11.20;99.90
23715;DHT22;12036;50.858;4.472;2023-03-21T02:52:07;11.20;99.90
23715;DHT22;12036;50.858;4.472;2023-03-21T02:54:33;11.20;99.90
23715;DHT22;12036;50.858;4.472;2023-03-21T02:57:01;11.20;99.90
23715;DHT22;12036;50.858;4.472;2023-03-21T02:59:29;11.20;99.90
23715;DHT22;12036;50.858;4.472;2023-03-21T03:01:56;11.20;99.90
23715;DHT22;12036;50.858;4.472;2023-03-21T03:04:25;11.30;99.90
23715;DHT22;12036;50.858;4.472;2023-03-21T03:07:11;11.30;99.90
23715;DHT22;12036;50.858;4.472;2023-03-21T03:10:01;11.40;99.90
23715;DHT22;12036;50.858;4.472;2023-03-21T03:21:12;11.40;99.90
23715;DHT22;12036;50.858;4.472;2023-03-21T03:23:52;11.30;99.90
23715;DHT22;12036;50.858;4.472;2023-03-21T03:26:24;11.40;99.90
23715;DHT22;12036;50.858;4.472;2023-03-21T03:28:53;11.40;99.90
23715;DHT22;12036;50.858;4.472;2023-03-21T03:31:24;11.40;99.90
23715;DHT22;12036;50.858;4.472;2023-03-21T03:33:54;11.40;99.90
23715;DHT22;12036;50.858;4.472;2023-03-21T03:36:24;11.40;99.90
23715;DHT22;12036;50.858;4.472;2023-03-21T03:38:52;11.50;99.90
23715;DHT22;12036;50.858;4.472;2023-03-21T03:41:25;11.40;99.90
23715;DHT22;12036;50.858;4.472;2023-03-21T03:43:55;11.50;99.90
23715;DHT22;12036;50.858;4.472;2023-03-21T03:46:57;11.50;99.90
23715;DHT22;12036;50.858;4.472;2023-03-21T03:49:23;11.50;99.90
23715;DHT22;12036;50.858;4.472;2023-03-21T03:52:16;11.50;99.90
23715;DHT22;12036;50.858;4.472;2023-03-21T03:54:44;11.60;99.90
23715;DHT22;12036;50.858;4.472;2023-03-21T03:57:11;11.50;99.90
23715;DHT22;12036;50.858;4.472;2023-03-21T03:59:40;11.50;99.90
23715;DHT22;12036;50.858;4.472;2023-03-21T04:02:06;11.60;99.90
23715;DHT22;12036;50.858;4.472;2023-03-21T04:04:33;11.50;99.90
23715;DHT22;12036;50.858;4.472;2023-03-21T04:06:58;11.50;99.90
23715;DHT22;12036;50.858;4.472;2023-03-21T04:09:25;11.50;99.90
23715;DHT22;12036;50.858;4.472;2023-03-21T04:11:55;11.50;99.90
23715;DHT22;12036;50.858;4.472;2023-03-21T04:14:21;11.50;99.90
23715;DHT22;12036;50.858;4.472;2023-03-21T04:16:47;11.50;99.90
23715;DHT22;12036;50.858;4.472;2023-03-21T04:19:13;11.50;99.90
23715;DHT22;12036;50.858;4.472;2023-03-21T04:21:40;11.40;99.90
23715;DHT22;12036;50.858;4.472;2023-03-21T04:24:06;11.50;99.90
23715;DHT22;12036;50.858;4.472;2023-03-21T04:26:32;11.50;99.90
23715;DHT22;12036;50.858;4.472;2023-03-21T04:29:00;11.50;99.90
23715;DHT22;12036;50.858;4.472;2023-03-21T04:31:28;11.50;99.90
23715;DHT22;12036;50.858;4.472;2023-03-21T04:33:56;11.50;99.90
23715;DHT22;12036;50.858;4.472;2023-03-21T04:36:22;11.50;99.90
23715;DHT22;12036;50.858;4.472;2023-03-21T04:39:06;11.40;99.90
23715;DHT22;12036;50.858;4.472;2023-03-21T04:41:40;11.50;99.90
23715;DHT22;12036;50.858;4.472;2023-03-21T04:44:06;11.60;99.90
23715;DHT22;12036;50.858;4.472;2023-03-21T04:46:33;11.60;99.90
23715;DHT22;12036;50.858;4.472;2023-03-21T04:48:59;11.50;99.90
23715;DHT22;12036;50.858;4.472;2023-03-21T04:51:25;11.50;99.90
23715;DHT22;12036;50.858;4.472;2023-03-21T04:53:50;11.60;99.90
23715;DHT22;12036;50.858;4.472;2023-03-21T04:56:17;11.60;99.90
23715;DHT22;12036;50.858;4.472;2023-03-21T04:58:43;11.60;99.90
23715;DHT22;12036;50.858;4.472;2023-03-21T05:01:09;11.60;99.90
23715;DHT22;12036;50.858;4.472;2023-03-21T05:03:35;11.60;99.90
23715;DHT22;12036;50.858;4.472;2023-03-21T05:06:06;11.60;99.90
23715;DHT22;12036;50.858;4.472;2023-03-21T05:08:33;11.60;99.90
23715;DHT22;12036;50.858;4.472;2023-03-21T05:10:59;11.50;99.90
23715;DHT22;12036;50.858;4.472;2023-03-21T05:13:24;11.60;99.90
23715;DHT22;12036;50.858;4.472;2023-03-21T05:15:50;11.60;99.90
23715;DHT22;12036;50.858;4.472;2023-03-21T05:18:16;11.60;99.90
23715;DHT22;12036;50.858;4.472;2023-03-21T05:20:50;11.60;99.90
23715;DHT22;12036;50.858;4.472;2023-03-21T05:23:19;11.60;99.90
23715;DHT22;12036;50.858;4.472;2023-03-21T05:25:45;11.60;99.90
23715;DHT22;12036;50.858;4.472;2023-03-21T05:28:10;11.60;99.90
23715;DHT22;12036;50.858;4.472;2023-03-21T05:30:36;11.60;99.90
23715;DHT22;12036;50.858;4.472;2023-03-21T05:33:02;11.50;99.90
23715;DHT22;12036;50.858;4.472;2023-03-21T05:35:28;11.50;99.90
23715;DHT22;12036;50.858;4.472;2023-03-21T05:37:55;11.50;99.90
23715;DHT22;12036;50.858;4.472;2023-03-21T05:40:20;11.40;99.90
23715;DHT22;12036;50.858;4.472;2023-03-21T05:42:46;11.50;99.90
23715;DHT22;12036;50.858;4.472;2023-03-21T05:45:13;11.40;99.90
23715;DHT22;12036;50.858;4.472;2023-03-21T05:47:39;11.40;99.90
23715;DHT22;12036;50.858;4.472;2023-03-21T05:50:05;11.40;99.90
23715;DHT22;12036;50.858;4.472;2023-03-21T05:52:31;11.30;99.90
23715;DHT22;12036;50.858;4.472;2023-03-21T05:54:57;11.40;99.90
23715;DHT22;12036;50.858;4.472;2023-03-21T05:57:23;11.30;99.90
23715;DHT22;12036;50.858;4.472;2023-03-21T05:59:48;11.40;99.90
23715;DHT22;12036;50.858;4.472;2023-03-21T06:02:14;11.40;99.90
23715;DHT22;12036;50.858;4.472;2023-03-21T06:04:40;11.40;99.90
23715;DHT22;12036;50.858;4.472;2023-03-21T06:07:06;11.40;99.90
23715;DHT22;12036;50.858;4.472;2023-03-21T06:09:31;11.40;99.90
23715;DHT22;12036;50.858;4.472;2023-03-21T06:11:58;11.40;99.90
23715;DHT22;12036;50.858;4.472;2023-03-21T06:14:24;11.40;99.90
23715;DHT22;12036;50.858;4.472;2023-03-21T06:16:50;11.30;99.90
23715;DHT22;12036;50.858;4.472;2023-03-21T06:19:18;11.20;99.90
23715;DHT22;12036;50.858;4.472;2023-03-21T06:21:44;11.10;99.90
23715;DHT22;12036;50.858;4.472;2023-03-21T06:24:09;11.00;99.90
23715;DHT22;12036;50.858;4.472;2023-03-21T06:26:35;10.90;99.90
23715;DHT22;12036;50.858;4.472;2023-03-21T06:29:01;10.80;99.90
23715;DHT22;12036;50.858;4.472;2023-03-21T06:31:27;10.80;99.90
23715;DHT22;12036;50.858;4.472;2023-03-21T06:33:53;10.80;99.90
23715;DHT22;12036;50.858;4.472;2023-03-21T06:36:19;10.80;99.90
23715;DHT22;12036;50.858;4.472;2023-03-21T06:38:45;10.70;99.90
23715;DHT22;12036;50.858;4.472;2023-03-21T06:41:12;10.70;99.90
23715;DHT22;12036;50.858;4.472;2023-03-21T06:43:38;10.70;99.90
23715;DHT22;12036;50.858;4.472;2023-03-21T06:46:03;10.70;99.90
23715;DHT22;12036;50.858;4.472;2023-03-21T06:48:30;10.70;99.90
23715;DHT22;12036;50.858;4.472;2023-03-21T06:50:56;10.60;99.90
23715;DHT22;12036;50.858;4.472;2023-03-21T06:53:23;10.60;99.90
23715;DHT22;12036;50.858;4.472;2023-03-21T06:55:53;10.60;99.90
23715;DHT22;12036;50.858;4.472;2023-03-21T06:58:20;10.60;99.90
23715;DHT22;12036;50.858;4.472;2023-03-21T07:00:46;10.60;99.90
23715;DHT22;12036;50.858;4.472;2023-03-21T07:03:12;10.60;99.90
23715;DHT22;12036;50.858;4.472;2023-03-21T07:05:38;10.70;99.90
23715;DHT22;12036;50.858;4.472;2023-03-21T07:08:05;10.70;99.90
23715;DHT22;12036;50.858;4.472;2023-03-21T07:10:30;10.70;99.90
23715;DHT22;12036;50.858;4.472;2023-03-21T07:12:58;10.70;99.90
23715;DHT22;12036;50.858;4.472;2023-03-21T07:15:24;10.80;99.90
23715;DHT22;12036;50.858;4.472;2023-03-21T07:17:50;10.80;99.90
23715;DHT22;12036;50.858;4.472;2023-03-21T07:20:16;10.80;99.90
23715;DHT22;12036;50.858;4.472;2023-03-21T07:22:42;10.90;99.90
23715;DHT22;12036;50.858;4.472;2023-03-21T07:25:08;10.90;99.90
23715;DHT22;12036;50.858;4.472;2023-03-21T07:27:35;10.90;99.90
23715;DHT22;12036;50.858;4.472;2023-03-21T07:30:02;10.90;99.90
23715;DHT22;12036;50.858;4.472;2023-03-21T07:32:31;11.00;99.90
23715;DHT22;12036;50.858;4.472;2023-03-21T07:34:58;11.00;99.90
23715;DHT22;12036;50.858;4.472;2023-03-21T07:37:25;11.00;99.90
23715;DHT22;12036;50.858;4.472;2023-03-21T07:39:51;11.00;99.90
23715;DHT22;12036;50.858;4.472;2023-03-21T07:42:16;11.10;99.90
23715;DHT22;12036;50.858;4.472;2023-03-21T07:44:42;11.20;99.90
23715;DHT22;12036;50.858;4.472;2023-03-21T07:47:08;11.40;99.90
23715;DHT22;12036;50.858;4.472;2023-03-21T07:49:33;11.50;99.90
23715;DHT22;12036;50.858;4.472;2023-03-21T07:52:00;11.70;99.90
23715;DHT22;12036;50.858;4.472;2023-03-21T07:54:26;11.90;99.90
23715;DHT22;12036;50.858;4.472;2023-03-21T07:56:53;12.00;99.90
23715;DHT22;12036;50.858;4.472;2023-03-21T07:59:19;12.10;99.90
23715;DHT22;12036;50.858;4.472;2023-03-21T08:01:44;12.10;99.90
23715;DHT22;12036;50.858;4.472;2023-03-21T08:04:10;12.00;99.90
23715;DHT22;12036;50.858;4.472;2023-03-21T08:06:36;11.90;99.90
23715;DHT22;12036;50.858;4.472;2023-03-21T08:09:02;11.80;99.90
23715;DHT22;12036;50.858;4.472;2023-03-21T08:11:28;11.80;99.90
23715;DHT22;12036;50.858;4.472;2023-03-21T08:13:56;11.90;99.90
23715;DHT22;12036;50.858;4.472;2023-03-21T08:16:22;11.90;99.90
23715;DHT22;12036;50.858;4.472;2023-03-21T08:18:48;11.70;99.90
23715;DHT22;12036;50.858;4.472;2023-03-21T08:21:13;11.70;99.90
23715;DHT22;12036;50.858;4.472;2023-03-21T08:23:39;11.70;99.90
23715;DHT22;12036;50.858;4.472;2023-03-21T08:26:05;11.70;99.90
23715;DHT22;12036;50.858;4.472;2023-03-21T08:28:30;11.70;99.90
23715;DHT22;12036;50.858;4.472;2023-03-21T08:30:56;11.80;99.90
23715;DHT22;12036;50.858;4.472;2023-03-21T08:33:22;11.80;99.90
23715;DHT22;12036;50.858;4.472;2023-03-21T08:35:47;11.80;99.90
23715;DHT22;12036;50.858;4.472;2023-03-21T08:38:13;11.90;99.90
23715;DHT22;12036;50.858;4.472;2023-03-21T08:40:39;11.90;99.90
23715;DHT22;12036;50.858;4.472;2023-03-21T08:43:05;11.90;99.90
23715;DHT22;12036;50.858;4.472;2023-03-21T08:45:31;11.90;99.90
23715;DHT22;12036;50.858;4.472;2023-03-21T08:47:57;11.90;99.90
23715;DHT22;12036;50.858;4.472;2023-03-21T08:50:24;12.00;99.90
23715;DHT22;12036;50.858;4.472;2023-03-21T08:52:52;12.00;99.90
23715;DHT22;12036;50.858;4.472;2023-03-21T08:55:18;12.10;99.90
23715;DHT22;12036;50.858;4.472;2023-03-21T08:57:44;12.10;99.90
23715;DHT22;12036;50.858;4.472;2023-03-21T09:00:14;12.20;99.90
23715;DHT22;12036;50.858;4.472;2023-03-21T09:02:43;12.30;99.90
23715;DHT22;12036;50.858;4.472;2023-03-21T09:05:10;12.40;99.90
23715;DHT22;12036;50.858;4.472;2023-03-21T09:07:37;12.50;99.90
23715;DHT22;12036;50.858;4.472;2023-03-21T09:10:06;12.70;99.90
23715;DHT22;12036;50.858;4.472;2023-03-21T09:12:34;12.80;99.90
23715;DHT22;12036;50.858;4.472;2023-03-21T09:15:00;12.90;99.90
23715;DHT22;12036;50.858;4.472;2023-03-21T09:17:28;13.10;99.90
23715;DHT22;12036;50.858;4.472;2023-03-21T09:19:54;13.10;99.90
23715;DHT22;12036;50.858;4.472;2023-03-21T09:22:21;13.10;99.90
23715;DHT22;12036;50.858;4.472;2023-03-21T09:24:48;13.20;99.90
23715;DHT22;12036;50.858;4.472;2023-03-21T09:27:15;13.10;99.90
23715;DHT22;12036;50.858;4.472;2023-03-21T09:29:48;13.10;99.90
23715;DHT22;12036;50.858;4.472;2023-03-21T09:32:14;13.00;99.90
23715;DHT22;12036;50.858;4.472;2023-03-21T09:34:40;13.00;99.90
23715;DHT22;12036;50.858;4.472;2023-03-21T09:37:07;12.80;99.90
23715;DHT22;12036;50.858;4.472;2023-03-21T09:39:42;12.80;99.90
23715;DHT22;12036;50.858;4.472;2023-03-21T09:42:35;12.70;99.90
23715;DHT22;12036;50.858;4.472;2023-03-21T09:45:15;12.80;99.90
23715;DHT22;12036;50.858;4.472;2023-03-21T09:47:46;12.80;99.90
23715;DHT22;12036;50.858;4.472;2023-03-21T09:53:04;12.80;99.90
23715;DHT22;12036;50.858;4.472;2023-03-21T09:55:34;13.00;99.90
23715;DHT22;12036;50.858;4.472;2023-03-21T09:58:27;13.00;99.90
23715;DHT22;12036;50.858;4.472;2023-03-21T10:01:09;13.20;99.90
23715;DHT22;12036;50.858;4.472;2023-03-21T10:03:47;13.10;99.90
23715;DHT22;12036;50.858;4.472;2023-03-21T10:06:15;13.20;99.90
23715;DHT22;12036;50.858;4.472;2023-03-21T10:08:45;13.40;99.90
23715;DHT22;12036;50.858;4.472;2023-03-21T10:11:23;13.50;99.90
23715;DHT22;12036;50.858;4.472;2023-03-21T10:13:52;13.40;99.90
23715;DHT22;12036;50.858;4.472;2023-03-21T10:16:26;13.20;99.90
23715;DHT22;12036;50.858;4.472;2023-03-21T10:18:53;13.40;99.90
23715;DHT22;12036;50.858;4.472;2023-03-21T10:21:24;13.50;99.90
23715;DHT22;12036;50.858;4.472;2023-03-21T10:23:52;13.80;99.90
23715;DHT22;12036;50.858;4.472;2023-03-21T10:26:20;13.50;99.90
23715;DHT22;12036;50.858;4.472;2023-03-21T10:28:48;13.50;99.90
23715;DHT22;12036;50.858;4.472;2023-03-21T10:31:19;13.40;99.90
23715;DHT22;12036;50.858;4.472;2023-03-21T10:33:48;13.60;99.90
23715;DHT22;12036;50.858;4.472;2023-03-21T10:36:21;13.70;99.90
23715;DHT22;12036;50.858;4.472;2023-03-21T10:38:53;13.90;99.90
23715;DHT22;12036;50.858;4.472;2023-03-21T10:41:19;14.00;99.90
23715;DHT22;12036;50.858;4.472;2023-03-21T10:44:01;14.00;99.90
23715;DHT22;12036;50.858;4.472;2023-03-21T10:46:28;14.00;99.90
23715;DHT22;12036;50.858;4.472;2023-03-21T10:48:54;14.40;99.90
23715;DHT22;12036;50.858;4.472;2023-03-21T10:51:22;14.50;99.90
23715;DHT22;12036;50.858;4.472;2023-03-21T10:53:59;14.70;99.90
23715;DHT22;12036;50.858;4.472;2023-03-21T10:56:28;14.80;99.90
23715;DHT22;12036;50.858;4.472;2023-03-21T10:58:59;15.10;99.90
23715;DHT22;12036;50.858;4.472;2023-03-21T11:01:34;15.40;99.90
23715;DHT22;12036;50.858;4.472;2023-03-21T11:06:42;15.60;99.90
23715;DHT22;12036;50.858;4.472;2023-03-21T11:09:15;15.60;99.90
23715;DHT22;12036;50.858;4.472;2023-03-21T11:11:53;15.70;99.90
23715;DHT22;12036;50.858;4.472;2023-03-21T11:19:50;15.80;99.90
23715;DHT22;12036;50.858;4.472;2023-03-21T11:22:20;15.60;99.90
23715;DHT22;12036;50.858;4.472;2023-03-21T11:24:52;15.40;99.90
23715;DHT22;12036;50.858;4.472;2023-03-21T11:27:18;15.20;99.90
23715;DHT22;12036;50.858;4.472;2023-03-21T11:29:50;15.50;99.90
23715;DHT22;12036;50.858;4.472;2023-03-21T11:32:29;16.20;99.90
23715;DHT22;12036;50.858;4.472;2023-03-21T11:34:59;16.40;99.90
23715;DHT22;12036;50.858;4.472;2023-03-21T11:40:06;16.20;99.90
23715;DHT22;12036;50.858;4.472;2023-03-21T11:42:43;16.40;99.90
23715;DHT22;12036;50.858;4.472;2023-03-21T11:45:23;16.30;99.90
23715;DHT22;12036;50.858;4.472;2023-03-21T11:47:51;16.30;99.90
23715;DHT22;12036;50.858;4.472;2023-03-21T11:50:37;15.90;99.90
23715;DHT22;12036;50.858;4.472;2023-03-21T11:53:12;15.90;99.90
23715;DHT22;12036;50.858;4.472;2023-03-21T11:56:15;16.00;99.90
23715;DHT22;12036;50.858;4.472;2023-03-21T12:10:03;16.40;99.90
23715;DHT22;12036;50.858;4.472;2023-03-21T12:15:55;16.40;99.30
23715;DHT22;12036;50.858;4.472;2023-03-21T12:21:33;16.20;99.60
23715;DHT22;12036;50.858;4.472;2023-03-21T12:26:49;15.90;99.90
23715;DHT22;12036;50.858;4.472;2023-03-21T12:32:09;15.40;99.90
23715;DHT22;12036;50.858;4.472;2023-03-21T12:49:04;16.30;99.90
23715;DHT22;12036;50.858;4.472;2023-03-21T12:51:35;16.20;99.90
23715;DHT22;12036;50.858;4.472;2023-03-21T12:54:08;16.10;99.90
23715;DHT22;12036;50.858;4.472;2023-03-21T12:57:24;16.00;99.90
23715;DHT22;12036;50.858;4.472;2023-03-21T13:02:27;16.20;99.90
23715;DHT22;12036;50.858;4.472;2023-03-21T13:05:02;16.30;99.90
23715;DHT22;12036;50.858;4.472;2023-03-21T13:07:34;16.20;99.90
23715;DHT22;12036;50.858;4.472;2023-03-21T13:10:05;16.30;99.90
23715;DHT22;12036;50.858;4.472;2023-03-21T13:18:12;16.10;99.90
23715;DHT22;12036;50.858;4.472;2023-03-21T13:20:45;16.00;99.90
23715;DHT22;12036;50.858;4.472;2023-03-21T13:23:11;16.20;99.90
23715;DHT22;12036;50.858;4.472;2023-03-21T13:25:46;16.50;99.90
23715;DHT22;12036;50.858;4.472;2023-03-21T13:28:22;16.80;99.90
23715;DHT22;12036;50.858;4.472;2023-03-21T13:30:50;16.90;99.90
23715;DHT22;12036;50.858;4.472;2023-03-21T13:33:28;16.90;99.90
23715;DHT22;12036;50.858;4.472;2023-03-21T13:36:04;16.90;99.90
23715;DHT22;12036;50.858;4.472;2023-03-21T13:38:35;16.80;99.90
23715;DHT22;12036;50.858;4.472;2023-03-21T13:41:16;16.80;99.90
23715;DHT22;12036;50.858;4.472;2023-03-21T13:43:53;16.60;99.90
23715;DHT22;12036;50.858;4.472;2023-03-21T13:48:55;16.10;99.90
23715;DHT22;12036;50.858;4.472;2023-03-21T14:02:29;16.40;99.90
23715;DHT22;12036;50.858;4.472;2023-03-21T14:05:13;16.80;99.90
23715;DHT22;12036;50.858;4.472;2023-03-21T14:07:43;16.90;99.90
23715;DHT22;12036;50.858;4.472;2023-03-21T14:10:33;16.80;99.90
23715;DHT22;12036;50.858;4.472;2023-03-21T14:12:59;17.00;99.90
23715;DHT22;12036;50.858;4.472;2023-03-21T14:15:40;17.10;99.90
23715;DHT22;12036;50.858;4.472;2023-03-21T14:18:14;16.70;99.90
23715;DHT22;12036;50.858;4.472;2023-03-21T14:20:40;16.40;99.90
23715;DHT22;12036;50.858;4.472;2023-03-21T14:23:14;16.40;99.90
23715;DHT22;12036;50.858;4.472;2023-03-21T14:25:42;16.20;99.90
23715;DHT22;12036;50.858;4.472;2023-03-21T14:28:25;16.10;99.90
23715;DHT22;12036;50.858;4.472;2023-03-21T14:30:58;16.00;99.90
23715;DHT22;12036;50.858;4.472;2023-03-21T14:33:26;16.00;99.90
23715;DHT22;12036;50.858;4.472;2023-03-21T14:35:58;16.00;99.90
23715;DHT22;12036;50.858;4.472;2023-03-21T14:38:34;16.00;99.90
23715;DHT22;12036;50.858;4.472;2023-03-21T14:41:00;15.90;99.90
23715;DHT22;12036;50.858;4.472;2023-03-21T14:43:26;15.90;99.90
23715;DHT22;12036;50.858;4.472;2023-03-21T14:45:54;15.90;99.90
23715;DHT22;12036;50.858;4.472;2023-03-21T14:48:31;15.90;99.90
23715;DHT22;12036;50.858;4.472;2023-03-21T14:51:02;15.90;99.90
23715;DHT22;12036;50.858;4.472;2023-03-21T14:53:35;15.80;99.90
23715;DHT22;12036;50.858;4.472;2023-03-21T14:56:23;15.60;99.90
23715;DHT22;12036;50.858;4.472;2023-03-21T14:58:51;15.60;99.90
23715;DHT22;12036;50.858;4.472;2023-03-21T15:01:29;15.70;99.90
23715;DHT22;12036;50.858;4.472;2023-03-21T15:03:57;15.90;99.90
23715;DHT22;12036;50.858;4.472;2023-03-21T15:06:23;15.90;99.90
23715;DHT22;12036;50.858;4.472;2023-03-21T15:08:58;16.00;99.90
23715;DHT22;12036;50.858;4.472;2023-03-21T15:11:37;15.70;99.90
23715;DHT22;12036;50.858;4.472;2023-03-21T15:14:06;15.60;99.90
23715;DHT22;12036;50.858;4.472;2023-03-21T15:16:33;15.50;99.90
23715;DHT22;12036;50.858;4.472;2023-03-21T15:19:00;15.60;99.90
23715;DHT22;12036;50.858;4.472;2023-03-21T15:21:42;15.60;99.90
23715;DHT22;12036;50.858;4.472;2023-03-21T15:24:21;15.60;99.90
23715;DHT22;12036;50.858;4.472;2023-03-21T15:26:50;15.60;99.90
23715;DHT22;12036;50.858;4.472;2023-03-21T15:29:18;15.50;99.90
23715;DHT22;12036;50.858;4.472;2023-03-21T15:31:46;15.10;99.90
23715;DHT22;12036;50.858;4.472;2023-03-21T15:34:23;14.80;99.90
23715;DHT22;12036;50.858;4.472;2023-03-21T15:36:56;14.70;99.90
23715;DHT22;12036;50.858;4.472;2023-03-21T15:39:22;14.50;99.90
23715;DHT22;12036;50.858;4.472;2023-03-21T15:41:57;14.40;99.90
23715;DHT22;12036;50.858;4.472;2023-03-21T15:44:23;14.50;99.90
23715;DHT22;12036;50.858;4.472;2023-03-21T15:46:51;14.40;99.90
23715;DHT22;12036;50.858;4.472;2023-03-21T15:49:24;14.50;99.90
23715;DHT22;12036;50.858;4.472;2023-03-21T15:51:55;14.50;99.90
23715;DHT22;12036;50.858;4.472;2023-03-21T15:54:25;14.30;99.90
23715;DHT22;12036;50.858;4.472;2023-03-21T15:56:54;14.20;99.90
23715;DHT22;12036;50.858;4.472;2023-03-21T15:59:24;14.20;99.90
23715;DHT22;12036;50.858;4.472;2023-03-21T16:01:51;14.10;99.90
23715;DHT22;12036;50.858;4.472;2023-03-21T16:04:17;14.10;99.90
23715;DHT22;12036;50.858;4.472;2023-03-21T16:07:03;13.90;99.90
23715;DHT22;12036;50.858;4.472;2023-03-21T16:09:41;13.70;99.90
23715;DHT22;12036;50.858;4.472;2023-03-21T16:12:13;13.60;99.90
23715;DHT22;12036;50.858;4.472;2023-03-21T16:14:39;13.60;99.90
23715;DHT22;12036;50.858;4.472;2023-03-21T16:17:27;13.50;99.90
23715;DHT22;12036;50.858;4.472;2023-03-21T16:19:55;13.60;99.90
23715;DHT22;12036;50.858;4.472;2023-03-21T16:22:21;13.50;99.90
23715;DHT22;12036;50.858;4.472;2023-03-21T16:24:47;13.40;99.90
23715;DHT22;12036;50.858;4.472;2023-03-21T16:27:13;13.40;99.90
23715;DHT22;12036;50.858;4.472;2023-03-21T16:29:41;13.40;99.90
23715;DHT22;12036;50.858;4.472;2023-03-21T16:32:14;13.40;99.90
23715;DHT22;12036;50.858;4.472;2023-03-21T16:34:39;13.30;99.90
23715;DHT22;12036;50.858;4.472;2023-03-21T16:37:09;13.40;99.90
23715;DHT22;12036;50.858;4.472;2023-03-21T16:39:35;13.20;99.90
23715;DHT22;12036;50.858;4.472;2023-03-21T16:42:01;13.30;99.90
23715;DHT22;12036;50.858;4.472;2023-03-21T16:44:26;13.30;99.90
23715;DHT22;12036;50.858;4.472;2023-03-21T16:46:52;13.30;99.90
23715;DHT22;12036;50.858;4.472;2023-03-21T16:49:26;13.30;99.90
23715;DHT22;12036;50.858;4.472;2023-03-21T16:51:54;13.40;99.90
23715;DHT22;12036;50.858;4.472;2023-03-21T16:54:20;13.60;99.90
23715;DHT22;12036;50.858;4.472;2023-03-21T16:56:51;13.50;99.90
23715;DHT22;12036;50.858;4.472;2023-03-21T16:59:17;13.60;99.90
23715;DHT22;12036;50.858;4.472;2023-03-21T17:01:43;13.60;99.90
23715;DHT22;12036;50.858;4.472;2023-03-21T17:04:14;13.60;99.90
23715;DHT22;12036;50.858;4.472;2023-03-21T17:06:46;13.50;99.90
23715;DHT22;12036;50.858;4.472;2023-03-21T17:09:14;13.40;99.90
23715;DHT22;12036;50.858;4.472;2023-03-21T17:11:41;13.50;99.90
23715;DHT22;12036;50.858;4.472;2023-03-21T17:14:08;13.40;99.90
23715;DHT22;12036;50.858;4.472;2023-03-21T17:16:35;13.40;99.90
23715;DHT22;12036;50.858;4.472;2023-03-21T17:19:00;13.30;99.90
23715;DHT22;12036;50.858;4.472;2023-03-21T17:21:28;13.40;99.90
23715;DHT22;12036;50.858;4.472;2023-03-21T17:23:54;13.30;99.90
23715;DHT22;12036;50.858;4.472;2023-03-21T17:26:27;13.30;99.90
23715;DHT22;12036;50.858;4.472;2023-03-21T17:28:54;13.30;99.90